Time;durP1;ratioP1;P1;durP2;ratioP2;P2;SDS_P1;SDS_P2;PMS_P1;PMS_P2;Temp;Humidity;BMP_temperature;BMP_pressure;BME280_temperature;BME280_humidity;BME280_pressure;Samples;Min_cycle;Max_cycle;Signal;HPM_P1;HPM_P2
2023/10/15 00:01:30;;;;;;;14.35;8.40;;;17.60;99.90;;;;;;5052731;28;20433;-76
2023/10/15 00:03:55;;;;;;;12.77;9.02;;;17.60;99.90;;;;;;5054411;28;20044;-77
2023/10/15 00:06:21;;;;;;;14.88;9.23;;;17.60;99.90;;;;;;5065689;28;20111;-76
2023/10/15 00:08:47;;;;;;;16.08;8.65;;;17.50;99.90;;;;;;5049434;28;20063;-77
2023/10/15 00:11:13;;;;;;;23.33;9.63;;;17.50;99.90;;;;;;5052284;28;20033;-76
2023/10/15 00:13:39;;;;;;;17.08;10.38;;;17.50;99.90;;;;;;5050833;28;20024;-76
2023/10/15 00:16:05;;;;;;;17.67;8.70;;;17.50;99.90;;;;;;5049068;28;20187;-76
2023/10/15 00:18:30;;;;;;;15.45;9.27;;;17.50;99.90;;;;;;5051509;28;20028;-77
2023/10/15 00:21:11;;;;;;;14.13;9.80;;;17.40;99.90;;;;;;5052474;28;20029;-76
2023/10/15 00:23:37;;;;;;;18.63;11.25;;;17.20;99.90;;;;;;5059844;28;20040;-76
2023/10/15 00:26:04;;;;;;;15.15;10.48;;;17.20;99.90;;;;;;5050058;28;20744;-77
2023/10/15 00:28:30;;;;;;;16.40;10.27;;;17.40;99.90;;;;;;5052137;28;20033;-77
2023/10/15 00:30:56;;;;;;;17.23;10.05;;;17.40;99.90;;;;;;5051811;28;20032;-76
2023/10/15 00:33:22;;;;;;;17.23;10.65;;;17.30;99.90;;;;;;5064614;28;20029;-77
2023/10/15 00:35:53;;;;;;;17.50;10.13;;;17.20;99.90;;;;;;5051865;28;20049;-76
2023/10/15 00:38:19;;;;;;;15.98;9.18;;;17.20;99.90;;;;;;5059571;28;20031;-76
2023/10/15 00:41:00;;;;;;;16.10;9.45;;;17.00;99.90;;;;;;5052724;28;20119;-76
2023/10/15 00:43:26;;;;;;;15.38;9.82;;;17.00;99.90;;;;;;5056747;28;20071;-76
2023/10/15 00:45:52;;;;;;;15.25;9.73;;;17.10;99.90;;;;;;5060055;28;21039;-77
2023/10/15 00:48:23;;;;;;;18.23;10.35;;;17.10;99.90;;;;;;5048807;28;20036;-77
2023/10/15 00:50:51;;;;;;;17.75;9.65;;;17.10;99.90;;;;;;5057710;28;20082;-76
2023/10/15 00:53:22;;;;;;;15.95;10.02;;;17.20;99.90;;;;;;5055599;28;20082;-76
2023/10/15 00:55:50;;;;;;;15.10;9.70;;;17.30;99.90;;;;;;5049710;28;20090;-78
2023/10/15 00:58:22;;;;;;;13.88;9.80;;;17.30;99.90;;;;;;5066482;28;20486;-76
2023/10/15 01:03:25;;;;;;;14.00;9.40;;;17.30;99.90;;;;;;5053861;28;20043;-76
2023/10/15 01:05:54;;;;;;;;;;;17.20;99.90;;;;;;5046258;28;20463;-77
2023/10/15 01:08:31;;;;;;;12.93;9.98;;;17.20;99.90;;;;;;5048298;28;19909;-76
2023/10/15 01:11:17;;;;;;;16.73;10.68;;;17.30;99.90;;;;;;5050629;28;20025;-76
2023/10/15 01:13:43;;;;;;;14.05;9.10;;;17.30;99.90;;;;;;5048330;28;20399;-76
2023/10/15 01:16:13;;;;;;;14.13;9.38;;;17.20;99.90;;;;;;5059767;28;20033;-76
2023/10/15 01:18:39;;;;;;;17.58;10.63;;;17.20;99.90;;;;;;5048806;28;20120;-76
2023/10/15 01:21:09;;;;;;;17.48;10.30;;;17.20;99.90;;;;;;5055544;28;20754;-76
2023/10/15 01:26:14;;;;;;;15.90;11.13;;;17.20;99.90;;;;;;5052883;28;20039;-77
2023/10/15 01:28:40;;;;;;;15.65;10.25;;;17.20;99.90;;;;;;5055247;28;20024;-76
2023/10/15 01:31:06;;;;;;;17.50;10.63;;;17.20;99.90;;;;;;5046942;28;20048;-76
2023/10/15 01:33:47;;;;;;;20.65;10.70;;;17.20;99.90;;;;;;5048246;28;20033;-76
2023/10/15 01:36:29;;;;;;;17.23;10.75;;;17.20;99.90;;;;;;5052804;28;20487;-76
2023/10/15 01:38:57;;;;;;;13.40;8.30;;;17.20;99.90;;;;;;5056320;28;20035;-76
2023/10/15 01:41:25;;;;;;;18.33;10.88;;;17.30;99.90;;;;;;5050675;28;20025;-76
2023/10/15 01:43:56;;;;;;;15.07;9.50;;;17.20;99.90;;;;;;5058741;28;20407;-76
2023/10/15 01:47:07;;;;;;;14.95;10.07;;;17.10;99.90;;;;;;5045099;28;20486;-77
2023/10/15 01:49:21;;;;;;;18.10;9.48;;;17.10;99.90;;;;;;5051839;28;20052;-76
2023/10/15 01:51:46;;;;;;;14.07;9.65;;;17.00;99.90;;;;;;5050714;28;20021;-76
2023/10/15 01:54:12;;;;;;;15.13;10.05;;;17.00;99.90;;;;;;5050527;28;20411;-76
2023/10/15 01:56:39;;;;;;;14.60;10.45;;;17.10;99.90;;;;;;5053060;28;21044;-76
2023/10/15 01:59:08;;;;;;;17.55;10.05;;;17.10;99.90;;;;;;5054434;28;23147;-76
2023/10/15 02:01:40;;;;;;;14.75;9.85;;;17.10;99.90;;;;;;5049967;28;20032;-77
2023/10/15 02:04:21;;;;;;;19.20;10.48;;;17.00;99.90;;;;;;5055764;28;20158;-76
2023/10/15 02:06:47;;;;;;;14.35;8.85;;;16.90;99.90;;;;;;5054564;28;20395;-76
2023/10/15 02:09:18;;;;;;;16.13;10.30;;;17.00;99.90;;;;;;5059159;28;20040;-77
2023/10/15 02:11:47;;;;;;;16.70;10.15;;;17.00;99.90;;;;;;5056958;28;20037;-76
2023/10/15 02:14:20;;;;;;;12.43;8.68;;;17.00;99.90;;;;;;5057517;28;20866;-76
2023/10/15 02:16:49;;;;;;;17.23;9.25;;;16.90;99.90;;;;;;5047889;28;20498;-76
2023/10/15 02:19:19;;;;;;;13.85;8.95;;;16.70;99.90;;;;;;5061064;28;20033;-77
2023/10/15 02:21:50;;;;;;;16.83;10.18;;;16.70;99.90;;;;;;5056954;28;20033;-76
2023/10/15 02:24:15;;;;;;;16.92;10.02;;;16.70;99.90;;;;;;5060151;28;20114;-77
2023/10/15 02:26:41;;;;;;;14.73;9.73;;;16.80;99.90;;;;;;5057069;28;20494;-76
2023/10/15 02:29:20;;;;;;;20.30;10.80;;;16.70;99.90;;;;;;5060309;28;22669;-76
2023/10/15 02:31:46;;;;;;;14.52;9.57;;;16.70;99.90;;;;;;5057539;28;20028;-76
2023/10/15 02:34:14;;;;;;;15.75;9.32;;;16.60;99.90;;;;;;5061613;28;20024;-76
2023/10/15 02:36:42;;;;;;;19.60;9.65;;;16.40;99.90;;;;;;5057736;28;20048;-77
2023/10/15 02:39:08;;;;;;;17.10;9.20;;;16.50;99.90;;;;;;5050891;28;20048;-77
2023/10/15 02:41:40;;;;;;;14.25;9.68;;;16.50;99.90;;;;;;5051358;28;20025;-76
2023/10/15 02:44:13;;;;;;;13.55;9.55;;;16.40;99.90;;;;;;5061618;28;20025;-76
2023/10/15 02:46:47;;;;;;;15.27;8.95;;;16.50;99.90;;;;;;5068985;28;20031;-76
2023/10/15 02:49:15;;;;;;;;;;;16.40;99.90;;;;;;5050823;28;20086;-77
2023/10/15 02:51:48;;;;;;;15.00;8.82;;;16.40;99.90;;;;;;5059553;28;19994;-76
2023/10/15 02:54:27;;;;;;;13.68;8.32;;;16.40;99.90;;;;;;5060733;28;20028;-76
2023/10/15 02:56:56;;;;;;;15.57;8.77;;;16.40;99.90;;;;;;5062778;28;20033;-76
2023/10/15 02:59:23;;;;;;;13.50;8.45;;;16.50;99.90;;;;;;5049141;28;20027;-76
2023/10/15 03:01:54;;;;;;;13.13;8.30;;;16.60;99.90;;;;;;5051642;28;20056;-76
2023/10/15 03:04:32;;;;;;;12.38;8.40;;;16.40;99.90;;;;;;5046324;28;20210;-78
2023/10/15 03:07:17;;;;;;;15.48;7.93;;;16.50;99.90;;;;;;5052754;28;20033;-77
2023/10/15 03:09:48;;;;;;;16.33;9.25;;;16.40;99.90;;;;;;5045608;28;20092;-78
2023/10/15 03:12:18;;;;;;;13.27;8.15;;;16.30;99.90;;;;;;5049923;28;20056;-78
2023/10/15 03:14:44;;;;;;;13.60;9.05;;;16.30;99.90;;;;;;5046070;28;20052;-77
2023/10/15 03:17:27;;;;;;;15.40;9.60;;;16.30;99.90;;;;;;5049522;28;20032;-77
2023/10/15 03:20:10;;;;;;;16.75;9.27;;;16.30;99.90;;;;;;5052935;28;20087;-77
2023/10/15 03:22:38;;;;;;;13.07;8.60;;;16.30;99.90;;;;;;5051334;28;20028;-77
2023/10/15 03:25:04;;;;;;;14.88;8.40;;;16.30;99.90;;;;;;5058409;28;20119;-78
2023/10/15 03:27:32;;;;;;;14.80;8.70;;;16.30;99.90;;;;;;5051854;28;20033;-77
2023/10/15 03:29:58;;;;;;;12.13;8.25;;;16.30;99.90;;;;;;5045328;28;20510;-77
2023/10/15 03:32:31;;;;;;;12.30;7.78;;;16.30;99.90;;;;;;5052259;28;20037;-77
2023/10/15 03:35:04;;;;;;;13.98;8.07;;;16.30;99.90;;;;;;5049139;28;20047;-77
2023/10/15 03:37:31;;;;;;;14.35;8.95;;;16.30;99.90;;;;;;5057021;28;20418;-77
2023/10/15 03:39:56;;;;;;;11.85;8.57;;;16.30;99.90;;;;;;5051182;28;20140;-77
2023/10/15 03:42:28;;;;;;;14.45;8.02;;;16.30;99.90;;;;;;5047388;28;20507;-77
2023/10/15 03:44:59;;;;;;;12.98;7.55;;;16.20;99.90;;;;;;5051597;28;20028;-77
2023/10/15 03:47:25;;;;;;;12.85;8.20;;;16.20;99.90;;;;;;5046463;28;20029;-77
2023/10/15 03:49:51;;;;;;;14.02;7.72;;;16.20;99.90;;;;;;5049644;28;20120;-76
2023/10/15 03:52:22;;;;;;;11.90;8.18;;;16.20;99.90;;;;;;5046749;28;20111;-77
2023/10/15 03:54:49;;;;;;;13.77;7.45;;;16.20;99.90;;;;;;5056392;28;20048;-77
2023/10/15 03:57:18;;;;;;;12.48;7.95;;;16.20;99.90;;;;;;5049099;28;20108;-77
2023/10/15 03:59:55;;;;;;;11.60;7.50;;;16.20;99.90;;;;;;5049133;28;21778;-77
2023/10/15 04:02:23;;;;;;;10.45;7.07;;;16.20;99.90;;;;;;5050976;28;20025;-78
2023/10/15 04:05:35;;;;;;;12.68;6.65;;;16.30;99.90;;;;;;5057730;28;20125;-77
2023/10/15 04:07:48;;;;;;;11.85;6.93;;;16.20;99.90;;;;;;5050011;28;20049;-77
2023/10/15 04:10:15;;;;;;;13.95;7.13;;;16.10;99.90;;;;;;5042624;28;20628;-78
2023/10/15 04:12:43;;;;;;;11.82;6.47;;;16.20;99.90;;;;;;5039938;28;20488;-78
2023/10/15 04:15:17;;;;;;;10.80;6.85;;;16.20;99.90;;;;;;5047444;28;20082;-78
2023/10/15 04:17:48;;;;;;;11.80;6.90;;;16.20;99.90;;;;;;5040188;28;20055;-78
2023/10/15 04:20:35;;;;;;;12.13;6.90;;;16.10;99.90;;;;;;5045700;28;20087;-77
2023/10/15 04:23:01;;;;;;;10.18;5.53;;;16.10;99.90;;;;;;5041784;28;20135;-77
2023/10/15 04:25:36;;;;;;;10.55;6.75;;;16.00;99.90;;;;;;5044077;28;20501;-78
2023/10/15 04:28:13;;;;;;;17.70;7.35;;;15.90;99.90;;;;;;5042710;28;20379;-77
2023/10/15 04:30:40;;;;;;;9.75;6.50;;;16.00;99.90;;;;;;5040346;28;20025;-77
2023/10/15 04:33:13;;;;;;;10.50;6.30;;;16.00;99.90;;;;;;5041413;28;20371;-77
2023/10/15 04:35:40;;;;;;;13.10;5.95;;;16.10;99.90;;;;;;5046810;28;20634;-77
2023/10/15 04:38:09;;;;;;;9.65;5.45;;;16.00;99.90;;;;;;5052720;28;20025;-77
2023/10/15 04:43:25;;;;;;;10.32;6.25;;;15.90;99.90;;;;;;5043432;28;20040;-77
2023/10/15 04:45:51;;;;;;;9.90;6.75;;;15.90;99.90;;;;;;5049854;28;20043;-77
2023/10/15 04:48:26;;;;;;;10.73;5.78;;;15.80;99.90;;;;;;5040692;28;20628;-77
2023/10/15 04:50:52;;;;;;;8.18;4.97;;;15.80;99.90;;;;;;5045291;28;20098;-77
2023/10/15 04:55:48;;;;;;;8.02;5.18;;;15.90;99.90;;;;;;5046264;28;20037;-77
2023/10/15 04:58:15;;;;;;;8.95;5.78;;;15.80;99.90;;;;;;5046023;28;20029;-78
2023/10/15 05:00:48;;;;;;;8.77;5.32;;;15.80;99.90;;;;;;5041680;28;20025;-77
2023/10/15 05:03:14;;;;;;;9.75;5.38;;;15.70;99.90;;;;;;5047249;28;20029;-77
2023/10/15 05:05:44;;;;;;;9.20;4.93;;;15.70;99.90;;;;;;5049519;28;20091;-77
2023/10/15 05:08:11;;;;;;;10.10;5.40;;;15.60;99.90;;;;;;5045527;28;20089;-78
2023/10/15 05:10:39;;;;;;;11.30;5.70;;;15.50;99.90;;;;;;5039029;28;20103;-78
2023/10/15 05:13:05;;;;;;;16.50;6.15;;;15.50;99.90;;;;;;5052245;28;20133;-77
2023/10/15 05:15:32;;;;;;;9.73;6.03;;;15.50;99.90;;;;;;5047952;28;25459;-78
2023/10/15 05:17:58;;;;;;;8.43;5.50;;;15.50;99.90;;;;;;5052783;28;20424;-78
2023/10/15 05:20:24;;;;;;;7.78;5.28;;;15.50;99.90;;;;;;5050482;28;20028;-77
2023/10/15 05:22:49;;;;;;;9.50;5.18;;;15.40;99.90;;;;;;5051724;28;20033;-77
2023/10/15 05:25:18;;;;;;;9.73;5.18;;;15.50;99.90;;;;;;5046803;28;20029;-77
2023/10/15 05:27:50;;;;;;;11.85;5.80;;;15.50;99.90;;;;;;5044962;28;20035;-77
2023/10/15 05:30:16;;;;;;;8.05;5.28;;;15.40;99.90;;;;;;5042787;28;20028;-77
2023/10/15 05:32:48;;;;;;;9.52;5.63;;;15.30;99.90;;;;;;5039067;28;20025;-77
2023/10/15 05:35:17;;;;;;;9.05;5.45;;;15.30;99.90;;;;;;5039844;28;20033;-78
2023/10/15 05:37:44;;;;;;;8.18;4.95;;;15.30;99.90;;;;;;5042985;28;21579;-77
2023/10/15 05:40:12;;;;;;;8.35;5.55;;;15.30;99.90;;;;;;5038638;28;20051;-77
2023/10/15 05:42:38;;;;;;;8.68;4.85;;;15.30;99.90;;;;;;5047163;28;20085;-77
2023/10/15 05:45:07;;;;;;;10.20;5.00;;;15.10;99.90;;;;;;5042353;28;20602;-77
2023/10/15 05:47:36;;;;;;;7.47;5.03;;;15.20;99.90;;;;;;5044729;28;20028;-77
2023/10/15 05:50:05;;;;;;;8.57;4.35;;;15.30;99.90;;;;;;5041646;28;20074;-77
2023/10/15 05:52:31;;;;;;;10.00;5.20;;;15.40;99.90;;;;;;5046829;28;20150;-77
2023/10/15 05:54:57;;;;;;;8.07;5.72;;;15.40;99.90;;;;;;5043498;28;20052;-77
2023/10/15 05:57:23;;;;;;;10.02;4.25;;;15.40;99.90;;;;;;5050674;28;20036;-77
2023/10/15 05:59:49;;;;;;;8.00;4.05;;;15.40;99.90;;;;;;5044381;28;20052;-78
2023/10/15 06:02:15;;;;;;;9.80;5.03;;;15.50;99.90;;;;;;5052215;28;20682;-77
2023/10/15 06:04:43;;;;;;;9.18;4.63;;;15.40;99.90;;;;;;5052908;28;20571;-78
2023/10/15 06:07:09;;;;;;;9.05;4.47;;;15.30;99.90;;;;;;5056347;28;20571;-77
2023/10/15 06:09:35;;;;;;;10.40;4.00;;;15.30;99.90;;;;;;5047612;28;20194;-77
2023/10/15 06:12:01;;;;;;;7.45;4.20;;;15.40;99.90;;;;;;5058988;28;20502;-77
2023/10/15 06:14:30;;;;;;;5.72;3.40;;;15.60;99.90;;;;;;5047796;28;20085;-77
2023/10/15 06:16:59;;;;;;;8.32;4.45;;;15.60;99.90;;;;;;5048463;28;20532;-77
2023/10/15 06:19:25;;;;;;;8.23;4.32;;;15.60;99.90;;;;;;5056564;28;20175;-77
2023/10/15 06:21:51;;;;;;;8.30;4.57;;;15.60;99.90;;;;;;5054057;28;20029;-78
2023/10/15 06:24:17;;;;;;;5.15;3.42;;;15.50;99.90;;;;;;5059300;28;20031;-77
2023/10/15 06:26:44;;;;;;;6.32;3.40;;;15.60;99.90;;;;;;5048695;28;20029;-77
2023/10/15 06:29:09;;;;;;;8.63;4.00;;;15.70;99.90;;;;;;5062791;28;20032;-77
2023/10/15 06:31:38;;;;;;;5.28;3.03;;;15.70;99.90;;;;;;5053474;28;20029;-77
2023/10/15 06:34:06;;;;;;;7.72;3.78;;;15.80;99.90;;;;;;5059090;28;20017;-75
2023/10/15 06:36:32;;;;;;;9.60;4.07;;;15.90;99.90;;;;;;5057090;28;20029;-76
2023/10/15 06:38:58;;;;;;;7.43;3.55;;;15.90;99.90;;;;;;5045164;28;20040;-76
2023/10/15 06:41:26;;;;;;;5.55;3.30;;;15.80;99.90;;;;;;5046557;28;20032;-77
2023/10/15 06:43:52;;;;;;;7.85;4.07;;;15.80;99.90;;;;;;5048185;28;20498;-75
2023/10/15 06:46:17;;;;;;;6.85;3.45;;;15.90;99.90;;;;;;5053699;28;20032;-75
2023/10/15 06:48:44;;;;;;;5.65;2.97;;;15.90;99.90;;;;;;5046421;28;20040;-75
2023/10/15 06:51:10;;;;;;;7.15;3.00;;;15.90;99.90;;;;;;5054836;28;20059;-76
2023/10/15 06:53:36;;;;;;;5.80;2.50;;;15.80;99.90;;;;;;5052476;28;20549;-76
2023/10/15 06:56:06;;;;;;;5.03;3.25;;;15.90;99.90;;;;;;5044603;28;20451;-77
2023/10/15 06:58:33;;;;;;;4.93;2.55;;;16.00;99.90;;;;;;5047659;28;20581;-76
2023/10/15 07:00:59;;;;;;;6.03;2.65;;;16.00;99.90;;;;;;5045849;28;20069;-76
2023/10/15 07:03:25;;;;;;;5.95;3.05;;;16.00;99.90;;;;;;5049080;28;20036;-76
2023/10/15 07:05:51;;;;;;;5.28;3.03;;;16.00;99.90;;;;;;5047542;28;20056;-76
2023/10/15 07:08:17;;;;;;;5.78;3.45;;;16.10;99.90;;;;;;5049970;28;20070;-75
2023/10/15 07:10:43;;;;;;;5.65;2.40;;;15.90;99.90;;;;;;5051937;28;20043;-76
2023/10/15 07:13:10;;;;;;;5.10;2.50;;;15.90;99.90;;;;;;5049182;28;20040;-75
2023/10/15 07:15:40;;;;;;;9.85;3.08;;;16.00;99.90;;;;;;5051300;28;20037;-75
2023/10/15 07:18:06;;;;;;;5.45;3.00;;;16.00;99.90;;;;;;5054410;28;20667;-75
2023/10/15 07:20:31;;;;;;;5.05;2.60;;;16.10;99.90;;;;;;5054737;28;20027;-75
2023/10/15 07:23:01;;;;;;;4.60;2.50;;;16.20;99.90;;;;;;5062984;28;20053;-75
2023/10/15 07:25:27;;;;;;;5.53;2.72;;;16.30;99.90;;;;;;5060699;28;20092;-75
2023/10/15 07:27:58;;;;;;;4.32;2.10;;;16.30;99.90;;;;;;5053901;28;20052;-75
2023/10/15 07:30:25;;;;;;;5.97;2.63;;;16.40;99.90;;;;;;5052269;28;20479;-75
2023/10/15 07:32:57;;;;;;;6.82;2.58;;;16.40;99.90;;;;;;5050762;28;20035;-75
2023/10/15 07:35:24;;;;;;;4.97;2.25;;;16.50;99.90;;;;;;5044473;28;20028;-75
2023/10/15 07:37:49;;;;;;;7.75;3.63;;;16.50;99.90;;;;;;5049148;28;20033;-75
2023/10/15 07:40:16;;;;;;;5.18;2.65;;;16.60;99.90;;;;;;5049380;28;20033;-75
2023/10/15 07:42:52;;;;;;;5.72;2.50;;;16.60;99.90;;;;;;5046453;28;20067;-76
2023/10/15 07:45:19;;;;;;;5.43;2.92;;;16.60;99.90;;;;;;5050138;28;20028;-76
2023/10/15 07:47:45;;;;;;;8.63;2.60;;;16.60;99.90;;;;;;5047327;28;20033;-75
2023/10/15 07:50:16;;;;;;;5.55;2.38;;;16.70;99.90;;;;;;5055309;28;20044;-77
2023/10/15 07:52:43;;;;;;;10.40;2.22;;;16.60;99.90;;;;;;5055290;28;20417;-77
2023/10/15 07:55:11;;;;;;;4.22;1.98;;;16.70;99.90;;;;;;5045488;28;20033;-77
2023/10/15 07:57:37;;;;;;;4.07;2.10;;;16.70;99.90;;;;;;5046077;28;20373;-77
2023/10/15 08:00:09;;;;;;;6.60;2.50;;;16.80;99.90;;;;;;5046077;28;20542;-77
2023/10/15 08:02:38;;;;;;;5.55;2.15;;;16.80;99.90;;;;;;5046400;28;20021;-77
2023/10/15 08:05:04;;;;;;;4.47;2.22;;;16.70;99.90;;;;;;5061221;28;20041;-77
2023/10/15 08:07:29;;;;;;;2.97;1.67;;;16.70;99.90;;;;;;5065839;28;20032;-77
2023/10/15 08:09:55;;;;;;;4.10;1.98;;;16.60;99.90;;;;;;5081707;28;20058;-77
2023/10/15 08:12:21;;;;;;;3.92;1.55;;;16.60;99.90;;;;;;5085795;28;20647;-76
2023/10/15 08:14:47;;;;;;;3.08;1.70;;;16.70;99.90;;;;;;5084895;28;20063;-77
2023/10/15 08:17:16;;;;;;;6.15;1.88;;;16.70;99.90;;;;;;5084851;28;20424;-77
2023/10/15 08:19:41;;;;;;;6.43;1.85;;;16.80;99.90;;;;;;5085522;28;20078;-76
2023/10/15 08:22:08;;;;;;;3.92;1.65;;;16.80;99.90;;;;;;5085566;28;20032;-76
2023/10/15 08:24:38;;;;;;;4.57;2.13;;;16.70;99.90;;;;;;5085650;28;20032;-77
2023/10/15 08:27:05;;;;;;;9.18;2.22;;;16.70;99.90;;;;;;5072114;28;20646;-76
2023/10/15 08:29:30;;;;;;;7.30;2.17;;;16.90;99.90;;;;;;5064768;28;20020;-77
2023/10/15 08:31:56;;;;;;;9.25;2.33;;;17.00;99.90;;;;;;5064631;28;20086;-75
2023/10/15 08:34:23;;;;;;;3.58;2.00;;;17.20;99.90;;;;;;5064928;28;20487;-76
2023/10/15 08:36:49;;;;;;;3.92;1.85;;;17.20;99.90;;;;;;5053663;28;20029;-77
2023/10/15 08:39:15;;;;;;;3.92;2.28;;;17.20;99.90;;;;;;5061189;28;20028;-77
2023/10/15 08:41:43;;;;;;;5.18;1.65;;;17.40;99.90;;;;;;5047749;28;20104;-76
2023/10/15 08:44:10;;;;;;;3.25;1.63;;;17.40;99.90;;;;;;5056615;28;20686;-76
2023/10/15 08:46:37;;;;;;;3.58;1.80;;;17.50;99.90;;;;;;5052646;28;20036;-76
2023/10/15 08:49:15;;;;;;;5.13;1.50;;;17.50;99.90;;;;;;5052621;28;20362;-76
2023/10/15 08:51:42;;;;;;;3.13;1.35;;;17.70;99.90;;;;;;5044467;28;20419;-76
2023/10/15 08:54:11;;;;;;;7.93;2.08;;;17.70;99.90;;;;;;5054715;28;20044;-76
2023/10/15 08:56:38;;;;;;;3.33;1.63;;;17.60;99.90;;;;;;5046928;28;20107;-76
2023/10/15 08:59:04;;;;;;;4.47;1.75;;;17.50;99.90;;;;;;5049292;28;20024;-76
2023/10/15 09:01:34;;;;;;;3.28;1.80;;;17.50;99.90;;;;;;5047570;28;20094;-76
2023/10/15 09:03:59;;;;;;;5.25;1.98;;;17.50;99.90;;;;;;5053956;28;20399;-76
2023/10/15 09:06:26;;;;;;;7.35;2.28;;;17.50;99.90;;;;;;5046604;28;20029;-76
2023/10/15 09:08:52;;;;;;;3.03;1.48;;;17.50;99.90;;;;;;5044195;28;20060;-76
2023/10/15 09:11:19;;;;;;;3.20;1.40;;;17.60;99.90;;;;;;5053284;28;20473;-76
2023/10/15 09:13:52;;;;;;;7.10;1.35;;;17.60;99.90;;;;;;5043453;28;20064;-76
2023/10/15 09:16:20;;;;;;;3.05;1.42;;;17.80;99.90;;;;;;5049301;28;20037;-77
2023/10/15 09:18:47;;;;;;;4.90;2.00;;;17.80;99.90;;;;;;5044167;28;20068;-75
2023/10/15 09:21:23;;;;;;;1.95;1.02;;;17.90;99.90;;;;;;5050022;28;20040;-76
2023/10/15 09:23:50;;;;;;;2.47;1.23;;;17.80;99.90;;;;;;5051511;28;20031;-76
2023/10/15 09:26:17;;;;;;;3.72;1.73;;;17.70;99.90;;;;;;5045517;28;20036;-76
2023/10/15 09:28:43;;;;;;;3.30;1.33;;;17.60;99.90;;;;;;5050941;28;20111;-76
2023/10/15 09:31:11;;;;;;;3.22;1.58;;;17.80;99.90;;;;;;5052013;28;20120;-76
2023/10/15 09:33:38;;;;;;;2.63;1.13;;;17.80;99.90;;;;;;5051392;28;20636;-76
2023/10/15 09:36:05;;;;;;;2.90;1.30;;;17.80;99.90;;;;;;5044556;28;20076;-76
2023/10/15 09:38:35;;;;;;;3.13;1.35;;;17.90;99.90;;;;;;5047757;28;20479;-76
2023/10/15 09:41:02;;;;;;;2.53;1.23;;;18.10;99.90;;;;;;5048862;28;20025;-76
2023/10/15 09:43:31;;;;;;;2.83;1.30;;;18.10;99.90;;;;;;5054617;28;20108;-76
2023/10/15 09:45:58;;;;;;;2.08;1.08;;;18.00;99.90;;;;;;5050180;28;20036;-76
2023/10/15 09:48:25;;;;;;;2.90;0.90;;;18.20;99.90;;;;;;5048854;28;20589;-75
2023/10/15 09:51:00;;;;;;;2.25;1.20;;;18.20;99.90;;;;;;5050657;28;20798;-76
2023/10/15 09:53:29;;;;;;;2.70;1.00;;;18.40;99.90;;;;;;5057415;28;20089;-76
2023/10/15 09:55:59;;;;;;;4.30;1.20;;;18.40;99.90;;;;;;5060232;28;20165;-76
2023/10/15 09:58:25;;;;;;;2.85;1.20;;;18.20;99.60;;;;;;5051532;28;20033;-76
2023/10/15 10:03:32;;;;;;;3.00;1.00;;;18.50;99.40;;;;;;5049749;28;20036;-76
2023/10/15 10:06:24;;;;;;;2.70;1.08;;;18.50;99.30;;;;;;5054485;28;20163;-77
2023/10/15 10:09:44;;;;;;;2.40;0.98;;;18.40;98.70;;;;;;5047513;28;20127;-76
2023/10/15 10:12:32;;;;;;;1.85;0.80;;;18.60;99.40;;;;;;5051827;28;20029;-76
2023/10/15 10:15:35;;;;;;;3.33;1.10;;;18.60;98.70;;;;;;5056851;28;20033;-76
2023/10/15 10:18:02;;;;;;;3.03;0.68;;;18.60;97.40;;;;;;5048313;28;20029;-76
2023/10/15 10:20:33;;;;;;;2.33;1.02;;;18.70;98.10;;;;;;5041541;28;20032;-76
2023/10/15 10:23:05;;;;;;;1.88;0.98;;;19.00;98.40;;;;;;5051522;28;20021;-76
2023/10/15 10:25:31;;;;;;;11.90;1.10;;;18.80;96.70;;;;;;5052218;28;20444;-76
2023/10/15 10:28:13;;;;;;;5.50;1.10;;;18.90;97.30;;;;;;5054354;28;20641;-76
2023/10/15 10:30:50;;;;;;;2.15;0.93;;;19.10;96.70;;;;;;5058097;28;20032;-76
2023/10/15 10:33:42;;;;;;;4.07;1.52;;;19.60;97.10;;;;;;5051777;28;20632;-77
2023/10/15 10:36:19;;;;;;;2.42;0.70;;;19.70;95.50;;;;;;5049032;28;20131;-77
2023/10/15 10:39:22;;;;;;;1.60;0.93;;;19.70;96.30;;;;;;5050776;28;20025;-77
2023/10/15 10:41:54;;;;;;;4.85;1.98;;;19.70;95.10;;;;;;5045323;28;20094;-76
2023/10/15 10:44:22;;;;;;;11.20;4.32;;;20.00;95.10;;;;;;5048899;28;20053;-77
2023/10/15 10:46:50;;;;;;;2.22;0.88;;;20.10;94.90;;;;;;5049243;28;20089;-77
2023/10/15 10:49:18;;;;;;;1.83;0.80;;;19.90;94.90;;;;;;5049468;28;20032;-77
2023/10/15 10:52:14;;;;;;;1.13;0.60;;;19.90;95.30;;;;;;5044472;28;20086;-77
2023/10/15 10:54:40;;;;;;;2.15;0.80;;;19.90;94.90;;;;;;5049019;28;20432;-77
2023/10/15 10:57:12;;;;;;;2.78;1.08;;;20.00;94.30;;;;;;5045643;28;20127;-78
2023/10/15 10:59:41;;;;;;;1.77;0.85;;;20.20;94.50;;;;;;5050887;28;20483;-76
2023/10/15 11:02:11;;;;;;;1.15;0.65;;;20.00;94.60;;;;;;5046216;28;20561;-77
2023/10/15 11:04:39;;;;;;;1.52;0.80;;;20.00;94.30;;;;;;5043505;28;20053;-77
2023/10/15 11:07:04;;;;;;;2.15;0.80;;;20.20;94.20;;;;;;5046142;28;20543;-76
2023/10/15 11:09:30;;;;;;;4.05;0.75;;;20.30;93.60;;;;;;5055183;28;20123;-77
2023/10/15 11:11:57;;;;;;;0.75;0.40;;;20.40;93.90;;;;;;5046930;28;20157;-76
2023/10/15 11:14:27;;;;;;;1.98;0.30;;;20.60;93.30;;;;;;5044147;28;20090;-78
2023/10/15 11:16:55;;;;;;;2.65;0.57;;;20.50;93.10;;;;;;5049391;28;20060;-77
2023/10/15 11:19:34;;;;;;;1.10;0.50;;;20.60;93.20;;;;;;5045978;28;20025;-79
2023/10/15 11:22:01;;;;;;;3.17;0.30;;;20.80;92.60;;;;;;5053349;28;20039;-79
2023/10/15 11:24:27;;;;;;;1.75;0.47;;;20.80;91.50;;;;;;5046174;28;20071;-77
2023/10/15 11:26:58;;;;;;;0.75;0.30;;;20.90;91.70;;;;;;5046344;28;20036;-78
2023/10/15 11:29:24;;;;;;;0.55;0.20;;;20.80;91.80;;;;;;5042965;28;20060;-77
2023/10/15 11:31:55;;;;;;;2.72;0.50;;;20.80;91.40;;;;;;5047486;28;20025;-78
2023/10/15 11:34:23;;;;;;;5.38;0.60;;;20.80;91.70;;;;;;5051498;28;20021;-78
2023/10/15 11:36:52;;;;;;;1.13;0.20;;;20.60;91.60;;;;;;5047439;28;20024;-78
2023/10/15 11:39:42;;;;;;;0.75;0.30;;;20.70;91.00;;;;;;5049963;28;20632;-77
2023/10/15 11:42:09;;;;;;;1.75;0.43;;;20.60;91.20;;;;;;5047041;28;20108;-77
2023/10/15 11:44:41;;;;;;;0.20;0.10;;;20.90;91.40;;;;;;5049859;28;20361;-77
2023/10/15 11:47:11;;;;;;;0.80;0.32;;;20.90;91.30;;;;;;5050266;28;20037;-78
2023/10/15 11:49:38;;;;;;;0.82;0.30;;;20.90;91.20;;;;;;5048206;28;20032;-77
2023/10/15 11:52:11;;;;;;;3.00;0.65;;;20.90;91.20;;;;;;5051857;28;20032;-77
2023/10/15 11:54:43;;;;;;;1.00;0.40;;;21.00;91.70;;;;;;5048409;28;20120;-77
2023/10/15 11:57:16;;;;;;;0.77;0.25;;;21.00;91.30;;;;;;5050365;28;20286;-77
2023/10/15 11:59:45;;;;;;;2.17;1.08;;;21.00;91.70;;;;;;5055792;28;20024;-77
2023/10/15 12:02:11;;;;;;;1.83;0.60;;;20.80;91.30;;;;;;5049817;28;20028;-77
2023/10/15 12:04:40;;;;;;;3.85;0.80;;;20.80;91.10;;;;;;5047353;28;20048;-76
2023/10/15 12:07:06;;;;;;;3.53;0.82;;;20.80;90.90;;;;;;5046570;28;20139;-77
2023/10/15 12:09:32;;;;;;;1.40;0.50;;;20.90;91.20;;;;;;5048581;28;21128;-77
2023/10/15 12:11:59;;;;;;;0.60;0.30;;;20.90;91.00;;;;;;5046394;28;20104;-77
2023/10/15 12:14:25;;;;;;;1.13;0.30;;;21.10;90.50;;;;;;5048950;28;20167;-78
2023/10/15 12:16:50;;;;;;;0.70;0.22;;;21.20;90.30;;;;;;5045394;28;20108;-77
2023/10/15 12:19:17;;;;;;;0.75;0.38;;;21.20;90.30;;;;;;5048369;28;20482;-77
2023/10/15 12:21:43;;;;;;;0.85;0.22;;;21.20;90.40;;;;;;5047744;28;20399;-78
2023/10/15 12:24:09;;;;;;;0.93;0.28;;;21.40;90.40;;;;;;5054786;28;20933;-79
2023/10/15 12:26:35;;;;;;;2.42;0.55;;;21.50;88.20;;;;;;5047718;28;20139;-78
2023/10/15 12:29:05;;;;;;;3.58;0.32;;;21.40;87.40;;;;;;5050650;28;20025;-78
2023/10/15 12:31:31;;;;;;;0.70;0.25;;;21.60;89.50;;;;;;5042580;28;20044;-77
2023/10/15 12:34:00;;;;;;;9.18;0.95;;;22.00;87.40;;;;;;5045515;28;20483;-77
2023/10/15 12:36:28;;;;;;;0.45;0.20;;;21.80;87.00;;;;;;5046770;28;20039;-77
2023/10/15 12:38:54;;;;;;;0.00;0.00;;;21.60;87.10;;;;;;5046958;28;20039;-78
2023/10/15 12:41:22;;;;;;;0.70;0.30;;;21.40;87.20;;;;;;5047557;28;20021;-77
2023/10/15 12:43:49;;;;;;;0.55;0.20;;;21.40;86.70;;;;;;5060219;28;20403;-77
2023/10/15 12:46:16;;;;;;;0.60;0.20;;;21.30;86.20;;;;;;5053727;28;20024;-77
2023/10/15 12:48:43;;;;;;;1.45;0.32;;;21.30;85.90;;;;;;5064730;28;20029;-76
2023/10/15 12:51:10;;;;;;;3.75;0.20;;;21.40;86.60;;;;;;5056852;28;20803;-77
2023/10/15 12:53:36;;;;;;;0.52;0.20;;;21.60;85.70;;;;;;5064942;28;20027;-77
2023/10/15 12:56:01;;;;;;;0.88;0.30;;;21.60;86.40;;;;;;5061460;28;20040;-77
2023/10/15 12:58:27;;;;;;;0.68;0.20;;;21.50;85.00;;;;;;5060443;28;20039;-77
2023/10/15 13:00:53;;;;;;;0.20;0.10;;;21.50;85.30;;;;;;5052418;28;20028;-77
2023/10/15 13:03:18;;;;;;;0.57;0.13;;;21.50;84.70;;;;;;5050252;28;20111;-77
2023/10/15 13:05:45;;;;;;;0.90;0.20;;;21.60;85.30;;;;;;5062588;28;20129;-78
2023/10/15 13:08:10;;;;;;;0.45;0.20;;;21.70;84.40;;;;;;5059891;28;20387;-78